sensor_id;sensor_type;location;lat;lon;timestamp;temperature;humidity
19403;DHT22;9837;48.888;8.998;2023-03-21T00:00:26;15.30;57.30
19403;DHT22;9837;48.888;8.998;2023-03-21T00:02:52;15.30;57.10
19403;DHT22;9837;48.888;8.998;2023-03-21T00:05:18;15.40;57.00
19403;DHT22;9837;48.888;8.998;2023-03-21T00:07:45;15.30;56.90
19403;DHT22;9837;48.888;8.998;2023-03-21T00:10:11;15.30;56.80
19403;DHT22;9837;48.888;8.998;2023-03-21T00:12:36;15.30;56.60
19403;DHT22;9837;48.888;8.998;2023-03-21T00:15:09;15.30;57.10
19403;DHT22;9837;48.888;8.998;2023-03-21T00:17:36;15.30;57.10
19403;DHT22;9837;48.888;8.998;2023-03-21T00:20:04;15.30;57.10
19403;DHT22;9837;48.888;8.998;2023-03-21T00:22:33;15.30;56.30
19403;DHT22;9837;48.888;8.998;2023-03-21T00:24:59;15.30;56.90
19403;DHT22;9837;48.888;8.998;2023-03-21T00:27:25;15.30;56.90
19403;DHT22;9837;48.888;8.998;2023-03-21T00:29:50;15.30;56.90
19403;DHT22;9837;48.888;8.998;2023-03-21T00:32:16;15.30;56.80
19403;DHT22;9837;48.888;8.998;2023-03-21T00:34:43;15.30;56.70
19403;DHT22;9837;48.888;8.998;2023-03-21T00:37:09;15.30;56.10
19403;DHT22;9837;48.888;8.998;2023-03-21T00:39:37;15.20;56.50
19403;DHT22;9837;48.888;8.998;2023-03-21T00:42:03;15.30;56.60
19403;DHT22;9837;48.888;8.998;2023-03-21T00:44:28;15.20;56.80
19403;DHT22;9837;48.888;8.998;2023-03-21T00:47:01;15.20;56.10
19403;DHT22;9837;48.888;8.998;2023-03-21T00:49:28;15.20;55.70
19403;DHT22;9837;48.888;8.998;2023-03-21T00:51:58;15.20;56.30
19403;DHT22;9837;48.888;8.998;2023-03-21T00:54:24;15.20;56.90
19403;DHT22;9837;48.888;8.998;2023-03-21T00:56:50;15.20;57.00
19403;DHT22;9837;48.888;8.998;2023-03-21T00:59:15;15.10;57.00
19403;DHT22;9837;48.888;8.998;2023-03-21T01:01:41;15.10;57.60
19403;DHT22;9837;48.888;8.998;2023-03-21T01:04:07;15.10;57.00
19403;DHT22;9837;48.888;8.998;2023-03-21T01:06:38;15.10;57.50
19403;DHT22;9837;48.888;8.998;2023-03-21T01:09:05;15.00;57.20
19403;DHT22;9837;48.888;8.998;2023-03-21T01:11:30;15.00;57.70
19403;DHT22;9837;48.888;8.998;2023-03-21T01:13:57;19.30;59.50
19403;DHT22;9837;48.888;8.998;2023-03-21T01:16:23;15.00;57.00
19403;DHT22;9837;48.888;8.998;2023-03-21T01:18:49;15.00;57.50
19403;DHT22;9837;48.888;8.998;2023-03-21T01:21:14;15.00;58.10
19403;DHT22;9837;48.888;8.998;2023-03-21T01:23:41;15.00;58.30
19403;DHT22;9837;48.888;8.998;2023-03-21T01:26:08;15.00;58.30
19403;DHT22;9837;48.888;8.998;2023-03-21T01:28:36;15.00;58.40
19403;DHT22;9837;48.888;8.998;2023-03-21T01:31:03;15.00;57.70
19403;DHT22;9837;48.888;8.998;2023-03-21T01:33:30;15.00;58.00
19403;DHT22;9837;48.888;8.998;2023-03-21T01:35:56;15.00;57.90
19403;DHT22;9837;48.888;8.998;2023-03-21T01:38:22;15.10;58.30
19403;DHT22;9837;48.888;8.998;2023-03-21T01:40:48;15.10;58.40
19403;DHT22;9837;48.888;8.998;2023-03-21T01:43:34;15.00;58.50
19403;DHT22;9837;48.888;8.998;2023-03-21T01:48:35;15.00;58.40
19403;DHT22;9837;48.888;8.998;2023-03-21T01:51:03;15.00;58.60
19403;DHT22;9837;48.888;8.998;2023-03-21T01:53:32;15.00;58.90
19403;DHT22;9837;48.888;8.998;2023-03-21T01:56:07;15.00;59.10
19403;DHT22;9837;48.888;8.998;2023-03-21T01:58:34;14.90;58.80
19403;DHT22;9837;48.888;8.998;2023-03-21T02:03:28;14.90;58.90
19403;DHT22;9837;48.888;8.998;2023-03-21T02:06:05;14.90;58.60
19403;DHT22;9837;48.888;8.998;2023-03-21T02:08:32;14.80;59.10
19403;DHT22;9837;48.888;8.998;2023-03-21T02:10:58;14.80;58.70
19403;DHT22;9837;48.888;8.998;2023-03-21T02:13:24;14.80;58.40
19403;DHT22;9837;48.888;8.998;2023-03-21T02:16:00;14.70;58.30
19403;DHT22;9837;48.888;8.998;2023-03-21T02:18:49;14.70;58.50
19403;DHT22;9837;48.888;8.998;2023-03-21T02:24:07;14.90;58.60
19403;DHT22;9837;48.888;8.998;2023-03-21T02:27:06;14.60;58.40
19403;DHT22;9837;48.888;8.998;2023-03-21T02:32:39;14.70;58.30
19403;DHT22;9837;48.888;8.998;2023-03-21T02:35:33;14.70;58.20
19403;DHT22;9837;48.888;8.998;2023-03-21T02:38:11;14.70;58.20
19403;DHT22;9837;48.888;8.998;2023-03-21T02:40:58;14.70;58.30
19403;DHT22;9837;48.888;8.998;2023-03-21T02:43:44;14.70;58.30
19403;DHT22;9837;48.888;8.998;2023-03-21T02:46:34;14.70;58.20
19403;DHT22;9837;48.888;8.998;2023-03-21T02:49:14;14.80;57.30
19403;DHT22;9837;48.888;8.998;2023-03-21T02:51:42;14.80;57.80
19403;DHT22;9837;48.888;8.998;2023-03-21T02:54:12;14.70;57.90
19403;DHT22;9837;48.888;8.998;2023-03-21T02:56:39;14.70;58.10
19403;DHT22;9837;48.888;8.998;2023-03-21T02:59:06;14.60;57.90
19403;DHT22;9837;48.888;8.998;2023-03-21T03:01:33;14.60;58.40
19403;DHT22;9837;48.888;8.998;2023-03-21T03:03:58;14.60;58.30
19403;DHT22;9837;48.888;8.998;2023-03-21T03:06:35;14.60;58.30
19403;DHT22;9837;48.888;8.998;2023-03-21T03:09:29;14.60;57.80
19403;DHT22;9837;48.888;8.998;2023-03-21T03:12:07;14.60;57.90
19403;DHT22;9837;48.888;8.998;2023-03-21T03:14:46;14.60;58.50
19403;DHT22;9837;48.888;8.998;2023-03-21T03:17:56;14.60;58.40
19403;DHT22;9837;48.888;8.998;2023-03-21T03:25:56;14.60;58.20
19403;DHT22;9837;48.888;8.998;2023-03-21T03:28:30;14.60;58.20
19403;DHT22;9837;48.888;8.998;2023-03-21T03:30:58;14.60;57.50
19403;DHT22;9837;48.888;8.998;2023-03-21T03:33:24;14.50;58.00
19403;DHT22;9837;48.888;8.998;2023-03-21T03:35:52;14.60;58.00
19403;DHT22;9837;48.888;8.998;2023-03-21T03:38:21;14.60;57.80
19403;DHT22;9837;48.888;8.998;2023-03-21T03:41:02;14.50;57.90
19403;DHT22;9837;48.888;8.998;2023-03-21T03:43:41;14.60;57.90
19403;DHT22;9837;48.888;8.998;2023-03-21T03:46:18;14.60;58.50
19403;DHT22;9837;48.888;8.998;2023-03-21T03:48:50;14.60;57.90
19403;DHT22;9837;48.888;8.998;2023-03-21T03:51:27;14.60;57.80
19403;DHT22;9837;48.888;8.998;2023-03-21T03:54:06;14.50;57.70
19403;DHT22;9837;48.888;8.998;2023-03-21T03:56:33;14.60;57.70
19403;DHT22;9837;48.888;8.998;2023-03-21T03:59:01;14.50;57.60
19403;DHT22;9837;48.888;8.998;2023-03-21T04:01:28;14.50;57.60
19403;DHT22;9837;48.888;8.998;2023-03-21T04:03:54;14.50;57.60
19403;DHT22;9837;48.888;8.998;2023-03-21T04:06:19;14.50;57.60
19403;DHT22;9837;48.888;8.998;2023-03-21T04:08:46;14.50;57.60
19403;DHT22;9837;48.888;8.998;2023-03-21T04:11:13;14.80;57.90
19403;DHT22;9837;48.888;8.998;2023-03-21T04:13:39;15.50;58.40
19403;DHT22;9837;48.888;8.998;2023-03-21T04:16:05;14.40;57.80
19403;DHT22;9837;48.888;8.998;2023-03-21T04:18:31;14.30;57.80
19403;DHT22;9837;48.888;8.998;2023-03-21T04:20:56;14.20;57.60
19403;DHT22;9837;48.888;8.998;2023-03-21T04:23:22;14.20;58.10
19403;DHT22;9837;48.888;8.998;2023-03-21T04:25:48;14.20;58.10
19403;DHT22;9837;48.888;8.998;2023-03-21T04:28:15;14.20;58.10
19403;DHT22;9837;48.888;8.998;2023-03-21T04:30:40;14.10;58.10
19403;DHT22;9837;48.888;8.998;2023-03-21T04:33:06;14.10;58.20
19403;DHT22;9837;48.888;8.998;2023-03-21T04:35:32;14.10;58.20
19403;DHT22;9837;48.888;8.998;2023-03-21T04:37:58;14.10;57.80
19403;DHT22;9837;48.888;8.998;2023-03-21T04:40:24;14.10;58.30
19403;DHT22;9837;48.888;8.998;2023-03-21T04:42:51;14.10;58.40
19403;DHT22;9837;48.888;8.998;2023-03-21T04:45:16;14.10;58.40
19403;DHT22;9837;48.888;8.998;2023-03-21T04:47:43;14.10;57.90
19403;DHT22;9837;48.888;8.998;2023-03-21T04:50:09;14.10;58.40
19403;DHT22;9837;48.888;8.998;2023-03-21T04:52:35;14.00;58.00
19403;DHT22;9837;48.888;8.998;2023-03-21T04:55:01;14.10;58.60
19403;DHT22;9837;48.888;8.998;2023-03-21T04:57:27;14.00;58.70
19403;DHT22;9837;48.888;8.998;2023-03-21T04:59:52;14.00;58.90
19403;DHT22;9837;48.888;8.998;2023-03-21T05:02:18;14.00;59.10
19403;DHT22;9837;48.888;8.998;2023-03-21T05:04:43;13.90;59.20
19403;DHT22;9837;48.888;8.998;2023-03-21T05:07:09;13.90;58.80
19403;DHT22;9837;48.888;8.998;2023-03-21T05:09:35;13.90;59.40
19403;DHT22;9837;48.888;8.998;2023-03-21T05:12:01;13.80;59.40
19403;DHT22;9837;48.888;8.998;2023-03-21T05:14:26;13.80;59.40
19403;DHT22;9837;48.888;8.998;2023-03-21T05:16:52;13.80;59.00
19403;DHT22;9837;48.888;8.998;2023-03-21T05:19:28;13.80;59.00
19403;DHT22;9837;48.888;8.998;2023-03-21T05:22:05;13.80;59.50
19403;DHT22;9837;48.888;8.998;2023-03-21T05:24:31;13.80;59.40
19403;DHT22;9837;48.888;8.998;2023-03-21T05:26:57;13.80;59.00
19403;DHT22;9837;48.888;8.998;2023-03-21T05:29:30;13.70;59.00
19403;DHT22;9837;48.888;8.998;2023-03-21T05:31:58;13.70;59.50
19403;DHT22;9837;48.888;8.998;2023-03-21T05:34:24;13.70;59.20
19403;DHT22;9837;48.888;8.998;2023-03-21T05:36:49;13.70;59.70
19403;DHT22;9837;48.888;8.998;2023-03-21T05:39:15;13.70;59.70
19403;DHT22;9837;48.888;8.998;2023-03-21T05:41:41;13.80;59.70
19403;DHT22;9837;48.888;8.998;2023-03-21T05:44:06;13.80;60.00
19403;DHT22;9837;48.888;8.998;2023-03-21T05:46:32;13.70;59.40
19403;DHT22;9837;48.888;8.998;2023-03-21T05:48:57;13.50;59.40
19403;DHT22;9837;48.888;8.998;2023-03-21T05:51:23;13.50;60.00
19403;DHT22;9837;48.888;8.998;2023-03-21T05:53:48;13.60;59.40
19403;DHT22;9837;48.888;8.998;2023-03-21T05:56:14;13.60;60.00
19403;DHT22;9837;48.888;8.998;2023-03-21T05:58:40;13.50;59.40
19403;DHT22;9837;48.888;8.998;2023-03-21T06:01:06;13.40;59.70
19403;DHT22;9837;48.888;8.998;2023-03-21T06:03:32;13.30;60.30
19403;DHT22;9837;48.888;8.998;2023-03-21T06:05:57;13.40;60.50
19403;DHT22;9837;48.888;8.998;2023-03-21T06:08:23;13.50;60.10
19403;DHT22;9837;48.888;8.998;2023-03-21T06:10:48;13.80;59.80
19403;DHT22;9837;48.888;8.998;2023-03-21T06:13:14;14.00;59.40
19403;DHT22;9837;48.888;8.998;2023-03-21T06:15:40;13.90;57.90
19403;DHT22;9837;48.888;8.998;2023-03-21T06:18:05;13.90;58.50
19403;DHT22;9837;48.888;8.998;2023-03-21T06:20:31;13.60;59.50
19403;DHT22;9837;48.888;8.998;2023-03-21T06:22:56;14.10;60.90
19403;DHT22;9837;48.888;8.998;2023-03-21T06:25:22;13.10;60.50
19403;DHT22;9837;48.888;8.998;2023-03-21T06:27:47;13.10;60.90
19403;DHT22;9837;48.888;8.998;2023-03-21T06:30:14;13.30;59.70
19403;DHT22;9837;48.888;8.998;2023-03-21T06:32:40;13.20;60.30
19403;DHT22;9837;48.888;8.998;2023-03-21T06:35:05;13.80;59.90
19403;DHT22;9837;48.888;8.998;2023-03-21T06:37:31;15.80;54.20
19403;DHT22;9837;48.888;8.998;2023-03-21T06:39:57;15.90;54.60
19403;DHT22;9837;48.888;8.998;2023-03-21T06:42:22;16.80;52.80
19403;DHT22;9837;48.888;8.998;2023-03-21T06:44:48;18.10;50.80
19403;DHT22;9837;48.888;8.998;2023-03-21T06:47:13;20.80;43.40
19403;DHT22;9837;48.888;8.998;2023-03-21T06:49:39;20.80;43.90
19403;DHT22;9837;48.888;8.998;2023-03-21T06:52:07;21.90;42.40
19403;DHT22;9837;48.888;8.998;2023-03-21T06:54:32;22.50;40.60
19403;DHT22;9837;48.888;8.998;2023-03-21T06:56:58;23.20;37.40
19403;DHT22;9837;48.888;8.998;2023-03-21T06:59:23;23.10;38.10
19403;DHT22;9837;48.888;8.998;2023-03-21T07:01:49;22.60;38.60
19403;DHT22;9837;48.888;8.998;2023-03-21T07:04:14;21.50;40.00
19403;DHT22;9837;48.888;8.998;2023-03-21T07:06:40;19.90;42.10
19403;DHT22;9837;48.888;8.998;2023-03-21T07:11:32;18.90;44.20
19403;DHT22;9837;48.888;8.998;2023-03-21T07:13:57;18.60;45.90
19403;DHT22;9837;48.888;8.998;2023-03-21T07:16:23;18.60;46.00
19403;DHT22;9837;48.888;8.998;2023-03-21T07:18:49;18.60;46.20
19403;DHT22;9837;48.888;8.998;2023-03-21T07:21:15;18.40;46.80
19403;DHT22;9837;48.888;8.998;2023-03-21T07:23:40;18.50;47.10
19403;DHT22;9837;48.888;8.998;2023-03-21T07:26:06;18.90;46.80
19403;DHT22;9837;48.888;8.998;2023-03-21T07:28:32;19.50;46.00
19403;DHT22;9837;48.888;8.998;2023-03-21T07:31:00;20.00;44.90
19403;DHT22;9837;48.888;8.998;2023-03-21T07:33:27;20.20;44.20
19403;DHT22;9837;48.888;8.998;2023-03-21T07:35:54;20.40;43.70
19403;DHT22;9837;48.888;8.998;2023-03-21T07:38:20;20.40;43.30
19403;DHT22;9837;48.888;8.998;2023-03-21T07:40:47;21.50;43.20
19403;DHT22;9837;48.888;8.998;2023-03-21T07:43:13;21.50;42.10
19403;DHT22;9837;48.888;8.998;2023-03-21T07:45:39;22.30;40.20
19403;DHT22;9837;48.888;8.998;2023-03-21T07:48:07;22.30;40.60
19403;DHT22;9837;48.888;8.998;2023-03-21T07:50:33;22.90;37.90
19403;DHT22;9837;48.888;8.998;2023-03-21T07:52:58;23.10;38.40
19403;DHT22;9837;48.888;8.998;2023-03-21T07:55:24;23.10;38.90
19403;DHT22;9837;48.888;8.998;2023-03-21T07:57:49;23.40;37.80
19403;DHT22;9837;48.888;8.998;2023-03-21T08:00:17;23.70;37.60
19403;DHT22;9837;48.888;8.998;2023-03-21T08:02:51;24.00;37.30
19403;DHT22;9837;48.888;8.998;2023-03-21T08:05:20;24.40;35.40
19403;DHT22;9837;48.888;8.998;2023-03-21T08:07:46;24.50;36.30
19403;DHT22;9837;48.888;8.998;2023-03-21T08:10:12;24.60;35.60
19403;DHT22;9837;48.888;8.998;2023-03-21T08:12:37;25.00;34.40
19403;DHT22;9837;48.888;8.998;2023-03-21T08:15:03;25.90;33.60
19403;DHT22;9837;48.888;8.998;2023-03-21T08:17:29;25.90;34.20
19403;DHT22;9837;48.888;8.998;2023-03-21T08:19:54;26.30;33.50
19403;DHT22;9837;48.888;8.998;2023-03-21T08:22:20;26.90;30.70
19403;DHT22;9837;48.888;8.998;2023-03-21T08:24:46;28.00;32.00
19403;DHT22;9837;48.888;8.998;2023-03-21T08:29:37;27.60;29.20
19403;DHT22;9837;48.888;8.998;2023-03-21T08:32:05;27.20;29.70
19403;DHT22;9837;48.888;8.998;2023-03-21T08:34:30;27.10;30.00
19403;DHT22;9837;48.888;8.998;2023-03-21T08:36:56;26.40;29.60
19403;DHT22;9837;48.888;8.998;2023-03-21T08:39:22;26.40;30.00
19403;DHT22;9837;48.888;8.998;2023-03-21T08:41:49;26.10;30.10
19403;DHT22;9837;48.888;8.998;2023-03-21T08:46:41;23.90;32.80
19403;DHT22;9837;48.888;8.998;2023-03-21T08:49:07;23.20;35.50
19403;DHT22;9837;48.888;8.998;2023-03-21T08:51:32;23.30;34.80
19403;DHT22;9837;48.888;8.998;2023-03-21T08:53:58;23.30;34.80
19403;DHT22;9837;48.888;8.998;2023-03-21T08:56:23;23.80;33.80
19403;DHT22;9837;48.888;8.998;2023-03-21T08:58:49;24.00;32.20
19403;DHT22;9837;48.888;8.998;2023-03-21T09:01:15;24.00;32.80
19403;DHT22;9837;48.888;8.998;2023-03-21T09:03:41;23.50;33.30
19403;DHT22;9837;48.888;8.998;2023-03-21T09:06:08;23.20;35.40
19403;DHT22;9837;48.888;8.998;2023-03-21T09:08:36;23.00;34.70
19403;DHT22;9837;48.888;8.998;2023-03-21T09:11:02;22.30;35.40
19403;DHT22;9837;48.888;8.998;2023-03-21T09:13:27;21.60;36.10
19403;DHT22;9837;48.888;8.998;2023-03-21T09:15:54;20.70;37.80
19403;DHT22;9837;48.888;8.998;2023-03-21T09:18:19;20.70;38.60
19403;DHT22;9837;48.888;8.998;2023-03-21T09:20:47;21.30;37.40
19403;DHT22;9837;48.888;8.998;2023-03-21T09:25:43;21.90;35.30
19403;DHT22;9837;48.888;8.998;2023-03-21T09:30:35;21.80;35.90
19403;DHT22;9837;48.888;8.998;2023-03-21T09:33:03;21.70;36.00
19403;DHT22;9837;48.888;8.998;2023-03-21T09:35:31;21.40;36.90
19403;DHT22;9837;48.888;8.998;2023-03-21T09:37:57;21.20;37.90
19403;DHT22;9837;48.888;8.998;2023-03-21T09:44:06;21.30;37.20
19403;DHT22;9837;48.888;8.998;2023-03-21T09:49:22;20.20;38.80
19403;DHT22;9837;48.888;8.998;2023-03-21T09:51:51;19.90;39.50
19403;DHT22;9837;48.888;8.998;2023-03-21T09:54:25;20.10;39.00
19403;DHT22;9837;48.888;8.998;2023-03-21T09:56:53;21.00;37.70
19403;DHT22;9837;48.888;8.998;2023-03-21T09:59:27;20.90;38.10
19403;DHT22;9837;48.888;8.998;2023-03-21T10:04:20;21.70;37.20
19403;DHT22;9837;48.888;8.998;2023-03-21T10:06:55;22.00;37.40
19403;DHT22;9837;48.888;8.998;2023-03-21T10:09:22;22.20;36.80
19403;DHT22;9837;48.888;8.998;2023-03-21T10:12:11;22.20;36.40
19403;DHT22;9837;48.888;8.998;2023-03-21T10:14:48;22.20;37.00
19403;DHT22;9837;48.888;8.998;2023-03-21T10:17:40;22.10;37.20
19403;DHT22;9837;48.888;8.998;2023-03-21T10:20:24;22.10;36.50
19403;DHT22;9837;48.888;8.998;2023-03-21T10:22:54;22.10;37.80
19403;DHT22;9837;48.888;8.998;2023-03-21T10:25:26;22.10;36.20
19403;DHT22;9837;48.888;8.998;2023-03-21T10:27:53;21.60;36.80
19403;DHT22;9837;48.888;8.998;2023-03-21T10:30:27;21.40;37.90
19403;DHT22;9837;48.888;8.998;2023-03-21T10:32:56;21.50;36.70
19403;DHT22;9837;48.888;8.998;2023-03-21T10:35:23;21.60;37.10
19403;DHT22;9837;48.888;8.998;2023-03-21T10:37:49;21.80;36.80
19403;DHT22;9837;48.888;8.998;2023-03-21T10:40:15;21.80;37.30
19403;DHT22;9837;48.888;8.998;2023-03-21T10:42:41;22.00;36.50
19403;DHT22;9837;48.888;8.998;2023-03-21T10:45:15;22.30;34.70
19403;DHT22;9837;48.888;8.998;2023-03-21T10:47:41;22.30;35.20
19403;DHT22;9837;48.888;8.998;2023-03-21T10:50:18;22.40;37.60
19403;DHT22;9837;48.888;8.998;2023-03-21T10:52:54;22.30;36.70
19403;DHT22;9837;48.888;8.998;2023-03-21T10:55:29;22.10;36.30
19403;DHT22;9837;48.888;8.998;2023-03-21T10:58:06;21.50;37.20
19403;DHT22;9837;48.888;8.998;2023-03-21T11:00:42;21.40;37.90
19403;DHT22;9837;48.888;8.998;2023-03-21T11:03:34;21.50;37.50
19403;DHT22;9837;48.888;8.998;2023-03-21T11:06:07;21.90;37.70
19403;DHT22;9837;48.888;8.998;2023-03-21T11:08:43;22.00;37.90
19403;DHT22;9837;48.888;8.998;2023-03-21T11:11:27;22.10;36.00
19403;DHT22;9837;48.888;8.998;2023-03-21T11:13:56;22.10;36.60
19403;DHT22;9837;48.888;8.998;2023-03-21T11:16:29;22.20;37.00
19403;DHT22;9837;48.888;8.998;2023-03-21T11:19:11;22.00;37.80
19403;DHT22;9837;48.888;8.998;2023-03-21T11:21:37;21.80;38.50
19403;DHT22;9837;48.888;8.998;2023-03-21T11:24:04;21.70;38.40
19403;DHT22;9837;48.888;8.998;2023-03-21T11:26:37;21.80;38.80
19403;DHT22;9837;48.888;8.998;2023-03-21T11:31:50;21.90;39.00
19403;DHT22;9837;48.888;8.998;2023-03-21T11:34:31;22.00;38.60
19403;DHT22;9837;48.888;8.998;2023-03-21T11:36:59;22.10;37.30
19403;DHT22;9837;48.888;8.998;2023-03-21T11:39:37;22.00;37.80
19403;DHT22;9837;48.888;8.998;2023-03-21T11:42:25;21.70;37.90
19403;DHT22;9837;48.888;8.998;2023-03-21T11:45:01;21.40;39.60
19403;DHT22;9837;48.888;8.998;2023-03-21T11:47:28;21.40;39.30
19403;DHT22;9837;48.888;8.998;2023-03-21T11:49:54;21.10;39.60
19403;DHT22;9837;48.888;8.998;2023-03-21T11:52:26;20.30;40.10
19403;DHT22;9837;48.888;8.998;2023-03-21T12:00:25;19.60;43.00
19403;DHT22;9837;48.888;8.998;2023-03-21T12:03:07;19.30;44.10
19403;DHT22;9837;48.888;8.998;2023-03-21T12:05:52;19.80;43.40
19403;DHT22;9837;48.888;8.998;2023-03-21T12:11:44;20.10;41.90
19403;DHT22;9837;48.888;8.998;2023-03-21T12:14:24;20.30;41.70
19403;DHT22;9837;48.888;8.998;2023-03-21T12:19:49;20.50;41.30
19403;DHT22;9837;48.888;8.998;2023-03-21T12:25:21;20.60;41.40
19403;DHT22;9837;48.888;8.998;2023-03-21T12:28:09;20.40;41.90
19403;DHT22;9837;48.888;8.998;2023-03-21T12:36:53;19.80;42.90
19403;DHT22;9837;48.888;8.998;2023-03-21T12:39:34;20.10;41.90
19403;DHT22;9837;48.888;8.998;2023-03-21T12:44:40;20.90;41.80
19403;DHT22;9837;48.888;8.998;2023-03-21T12:47:14;20.80;40.90
19403;DHT22;9837;48.888;8.998;2023-03-21T12:50:04;21.00;41.00
19403;DHT22;9837;48.888;8.998;2023-03-21T12:52:37;21.40;40.20
19403;DHT22;9837;48.888;8.998;2023-03-21T12:55:12;21.40;40.70
19403;DHT22;9837;48.888;8.998;2023-03-21T12:57:44;21.70;39.80
19403;DHT22;9837;48.888;8.998;2023-03-21T13:00:15;21.70;40.70
19403;DHT22;9837;48.888;8.998;2023-03-21T13:05:34;22.10;39.40
19403;DHT22;9837;48.888;8.998;2023-03-21T13:08:20;22.00;39.60
19403;DHT22;9837;48.888;8.998;2023-03-21T13:10:47;21.70;40.30
19403;DHT22;9837;48.888;8.998;2023-03-21T13:13:30;21.70;41.50
19403;DHT22;9837;48.888;8.998;2023-03-21T13:16:03;21.90;40.60
19403;DHT22;9837;48.888;8.998;2023-03-21T13:21:13;22.10;40.70
19403;DHT22;9837;48.888;8.998;2023-03-21T13:23:57;22.00;40.80
19403;DHT22;9837;48.888;8.998;2023-03-21T13:26:38;18.70;39.30
19403;DHT22;9837;48.888;8.998;2023-03-21T13:29:22;21.80;40.10
19403;DHT22;9837;48.888;8.998;2023-03-21T13:31:50;21.40;40.90
19403;DHT22;9837;48.888;8.998;2023-03-21T13:34:15;21.40;40.50
19403;DHT22;9837;48.888;8.998;2023-03-21T13:36:48;22.80;41.50
19403;DHT22;9837;48.888;8.998;2023-03-21T13:39:23;21.20;41.40
19403;DHT22;9837;48.888;8.998;2023-03-21T13:41:49;21.00;41.70
19403;DHT22;9837;48.888;8.998;2023-03-21T13:44:34;21.10;41.70
19403;DHT22;9837;48.888;8.998;2023-03-21T13:47:05;21.20;40.90
19403;DHT22;9837;48.888;8.998;2023-03-21T13:56:08;21.50;40.40
19403;DHT22;9837;48.888;8.998;2023-03-21T14:03:44;21.20;40.80
19403;DHT22;9837;48.888;8.998;2023-03-21T14:06:12;20.90;41.40
19403;DHT22;9837;48.888;8.998;2023-03-21T14:08:40;20.70;42.10
19403;DHT22;9837;48.888;8.998;2023-03-21T14:11:11;20.90;42.40
19403;DHT22;9837;48.888;8.998;2023-03-21T14:13:40;21.10;41.60
19403;DHT22;9837;48.888;8.998;2023-03-21T14:16:10;21.00;41.80
19403;DHT22;9837;48.888;8.998;2023-03-21T14:18:45;20.80;41.70
19403;DHT22;9837;48.888;8.998;2023-03-21T14:21:17;20.70;42.30
19403;DHT22;9837;48.888;8.998;2023-03-21T14:23:44;20.60;43.00
19403;DHT22;9837;48.888;8.998;2023-03-21T14:26:10;20.80;42.70
19403;DHT22;9837;48.888;8.998;2023-03-21T14:28:36;21.10;42.20
19403;DHT22;9837;48.888;8.998;2023-03-21T14:31:03;20.90;42.80
19403;DHT22;9837;48.888;8.998;2023-03-21T14:33:37;21.00;42.70
19403;DHT22;9837;48.888;8.998;2023-03-21T14:36:16;20.80;42.30
19403;DHT22;9837;48.888;8.998;2023-03-21T14:38:51;20.90;42.80
19403;DHT22;9837;48.888;8.998;2023-03-21T14:41:26;21.00;42.60
19403;DHT22;9837;48.888;8.998;2023-03-21T14:46:40;21.50;41.70
19403;DHT22;9837;48.888;8.998;2023-03-21T14:51:44;21.30;42.40
19403;DHT22;9837;48.888;8.998;2023-03-21T14:54:14;21.30;42.30
19403;DHT22;9837;48.888;8.998;2023-03-21T14:56:47;21.30;42.40
19403;DHT22;9837;48.888;8.998;2023-03-21T14:59:16;21.20;42.80
19403;DHT22;9837;48.888;8.998;2023-03-21T15:01:42;20.80;43.20
19403;DHT22;9837;48.888;8.998;2023-03-21T15:04:13;20.70;44.30
19403;DHT22;9837;48.888;8.998;2023-03-21T15:06:53;20.80;43.90
19403;DHT22;9837;48.888;8.998;2023-03-21T15:09:21;21.00;43.60
19403;DHT22;9837;48.888;8.998;2023-03-21T15:11:50;21.00;43.30
19403;DHT22;9837;48.888;8.998;2023-03-21T15:14:18;20.50;43.90
19403;DHT22;9837;48.888;8.998;2023-03-21T15:16:44;20.90;43.80
19403;DHT22;9837;48.888;8.998;2023-03-21T15:19:15;21.40;44.60
19403;DHT22;9837;48.888;8.998;2023-03-21T15:21:45;22.40;44.50
19403;DHT22;9837;48.888;8.998;2023-03-21T15:24:23;20.80;43.80
19403;DHT22;9837;48.888;8.998;2023-03-21T15:26:57;20.90;43.90
19403;DHT22;9837;48.888;8.998;2023-03-21T15:29:23;20.70;43.40
19403;DHT22;9837;48.888;8.998;2023-03-21T15:31:49;20.70;43.00
19403;DHT22;9837;48.888;8.998;2023-03-21T15:34:33;20.80;43.20
19403;DHT22;9837;48.888;8.998;2023-03-21T15:37:03;20.50;42.70
19403;DHT22;9837;48.888;8.998;2023-03-21T15:39:30;20.40;43.40
19403;DHT22;9837;48.888;8.998;2023-03-21T15:44:29;20.10;44.80
19403;DHT22;9837;48.888;8.998;2023-03-21T15:46:55;20.30;44.10
19403;DHT22;9837;48.888;8.998;2023-03-21T15:49:30;20.30;44.60
19403;DHT22;9837;48.888;8.998;2023-03-21T15:52:06;20.30;44.80
19403;DHT22;9837;48.888;8.998;2023-03-21T15:57:21;20.40;44.20
19403;DHT22;9837;48.888;8.998;2023-03-21T15:59:48;20.50;44.90
19403;DHT22;9837;48.888;8.998;2023-03-21T16:02:16;20.40;45.20
19403;DHT22;9837;48.888;8.998;2023-03-21T16:07:46;20.10;46.20
19403;DHT22;9837;48.888;8.998;2023-03-21T16:10:37;20.10;46.30
19403;DHT22;9837;48.888;8.998;2023-03-21T16:13:03;20.10;45.70
19403;DHT22;9837;48.888;8.998;2023-03-21T16:15:30;19.90;46.30
19403;DHT22;9837;48.888;8.998;2023-03-21T16:17:58;20.20;46.70
19403;DHT22;9837;48.888;8.998;2023-03-21T16:20:31;20.10;46.70
19403;DHT22;9837;48.888;8.998;2023-03-21T16:22:58;20.20;46.40
19403;DHT22;9837;48.888;8.998;2023-03-21T16:27:50;20.30;45.60
19403;DHT22;9837;48.888;8.998;2023-03-21T16:30:18;20.30;45.70
19403;DHT22;9837;48.888;8.998;2023-03-21T16:32:44;20.30;46.00
19403;DHT22;9837;48.888;8.998;2023-03-21T16:35:10;20.10;46.10
19403;DHT22;9837;48.888;8.998;2023-03-21T16:37:35;19.90;45.70
19403;DHT22;9837;48.888;8.998;2023-03-21T16:40:01;20.00;46.30
19403;DHT22;9837;48.888;8.998;2023-03-21T16:42:30;19.90;46.20
19403;DHT22;9837;48.888;8.998;2023-03-21T16:44:55;20.00;46.30
19403;DHT22;9837;48.888;8.998;2023-03-21T16:47:21;19.90;46.00
19403;DHT22;9837;48.888;8.998;2023-03-21T16:52:14;19.80;46.20
19403;DHT22;9837;48.888;8.998;2023-03-21T16:54:41;19.90;46.90
19403;DHT22;9837;48.888;8.998;2023-03-21T16:57:13;19.90;46.00
19403;DHT22;9837;48.888;8.998;2023-03-21T16:59:40;19.90;46.50
19403;DHT22;9837;48.888;8.998;2023-03-21T17:02:14;19.80;46.70
19403;DHT22;9837;48.888;8.998;2023-03-21T17:04:41;19.60;48.20
19403;DHT22;9837;48.888;8.998;2023-03-21T17:07:09;19.10;49.30
19403;DHT22;9837;48.888;8.998;2023-03-21T17:09:39;19.00;49.80
19403;DHT22;9837;48.888;8.998;2023-03-21T17:12:10;18.90;50.40
19403;DHT22;9837;48.888;8.998;2023-03-21T17:14:39;18.50;50.20
19403;DHT22;9837;48.888;8.998;2023-03-21T17:17:05;18.40;50.30
19403;DHT22;9837;48.888;8.998;2023-03-21T17:19:30;18.50;51.00
19403;DHT22;9837;48.888;8.998;2023-03-21T17:21:56;18.50;51.30
19403;DHT22;9837;48.888;8.998;2023-03-21T17:24:21;18.60;51.40
19403;DHT22;9837;48.888;8.998;2023-03-21T17:26:48;18.60;51.60
19403;DHT22;9837;48.888;8.998;2023-03-21T17:29:14;18.60;51.90
19403;DHT22;9837;48.888;8.998;2023-03-21T17:31:39;18.50;51.80
19403;DHT22;9837;48.888;8.998;2023-03-21T17:34:05;18.50;52.00
19403;DHT22;9837;48.888;8.998;2023-03-21T17:36:33;18.40;52.10
19403;DHT22;9837;48.888;8.998;2023-03-21T17:38:59;18.00;52.50